sensor_id;sensor_type;location;lat;lon;timestamp;P1;durP1;ratioP1;P2;durP2;ratioP2
18867;SDS011;9563;49.240;9.088;2023-04-01T05:01:45;4.57;;;0.60;;
18867;SDS011;9563;49.240;9.088;2023-04-01T05:04:11;4.47;;;0.80;;
18867;SDS011;9563;49.240;9.088;2023-04-01T05:06:38;5.60;;;0.60;;
18867;SDS011;9563;49.240;9.088;2023-04-01T05:09:05;5.47;;;0.83;;
18867;SDS011;9563;49.240;9.088;2023-04-01T05:11:32;3.40;;;0.80;;
18867;SDS011;9563;49.240;9.088;2023-04-01T05:14:00;4.10;;;0.80;;
18867;SDS011;9563;49.240;9.088;2023-04-01T05:16:26;2.60;;;0.70;;
18867;SDS011;9563;49.240;9.088;2023-04-01T05:18:56;5.03;;;0.80;;
18867;SDS011;9563;49.240;9.088;2023-04-01T05:21:23;4.13;;;0.60;;
18867;SDS011;9563;49.240;9.088;2023-04-01T05:23:50;4.53;;;1.07;;
18867;SDS011;9563;49.240;9.088;2023-04-01T05:26:17;4.17;;;1.00;;
18867;SDS011;9563;49.240;9.088;2023-04-01T05:28:44;4.07;;;0.70;;
18867;SDS011;9563;49.240;9.088;2023-04-01T05:31:10;4.90;;;0.80;;
18867;SDS011;9563;49.240;9.088;2023-04-01T05:33:37;6.00;;;0.80;;
18867;SDS011;9563;49.240;9.088;2023-04-01T05:36:09;3.43;;;0.83;;
18867;SDS011;9563;49.240;9.088;2023-04-01T05:38:38;3.90;;;0.80;;
18867;SDS011;9563;49.240;9.088;2023-04-01T05:41:05;5.00;;;0.73;;
18867;SDS011;9563;49.240;9.088;2023-04-01T05:43:32;5.13;;;0.83;;
18867;SDS011;9563;49.240;9.088;2023-04-01T05:46:02;2.37;;;0.70;;
18867;SDS011;9563;49.240;9.088;2023-04-01T05:48:29;4.50;;;1.40;;
18867;SDS011;9563;49.240;9.088;2023-04-01T05:50:56;6.70;;;1.30;;
18867;SDS011;9563;49.240;9.088;2023-04-01T05:53:24;3.60;;;0.70;;
18867;SDS011;9563;49.240;9.088;2023-04-01T05:55:51;4.97;;;0.93;;
18867;SDS011;9563;49.240;9.088;2023-04-01T05:58:18;3.47;;;0.60;;
18867;SDS011;9563;49.240;9.088;2023-04-01T06:00:45;7.33;;;0.70;;
18867;SDS011;9563;49.240;9.088;2023-04-01T06:03:12;3.17;;;1.03;;
18867;SDS011;9563;49.240;9.088;2023-04-01T06:05:39;3.17;;;0.70;;
18867;SDS011;9563;49.240;9.088;2023-04-01T06:08:09;1.23;;;0.47;;
18867;SDS011;9563;49.240;9.088;2023-04-01T06:10:43;4.17;;;0.63;;
18867;SDS011;9563;49.240;9.088;2023-04-01T06:13:35;6.13;;;0.80;;
18867;SDS011;9563;49.240;9.088;2023-04-01T06:16:12;1.30;;;0.53;;
18867;SDS011;9563;49.240;9.088;2023-04-01T06:18:52;2.63;;;0.50;;
18867;SDS011;9563;49.240;9.088;2023-04-01T06:24:21;4.60;;;1.03;;
18867;SDS011;9563;49.240;9.088;2023-04-01T06:27:01;3.40;;;0.60;;
18867;SDS011;9563;49.240;9.088;2023-04-01T06:29:44;3.67;;;0.70;;
18867;SDS011;9563;49.240;9.088;2023-04-01T06:32:27;2.23;;;0.63;;
18867;SDS011;9563;49.240;9.088;2023-04-01T06:35:20;1.50;;;0.60;;
18867;SDS011;9563;49.240;9.088;2023-04-01T06:38:16;4.53;;;0.80;;
18867;SDS011;9563;49.240;9.088;2023-04-01T06:41:05;6.47;;;0.87;;
18867;SDS011;9563;49.240;9.088;2023-04-01T06:43:52;4.23;;;1.03;;
18867;SDS011;9563;49.240;9.088;2023-04-01T06:46:30;1.10;;;0.43;;
18867;SDS011;9563;49.240;9.088;2023-04-01T06:49:10;3.40;;;0.50;;
18867;SDS011;9563;49.240;9.088;2023-04-01T06:51:59;1.83;;;0.57;;
18867;SDS011;9563;49.240;9.088;2023-04-01T06:54:33;1.90;;;0.73;;
18867;SDS011;9563;49.240;9.088;2023-04-01T06:57:03;3.13;;;0.40;;
18867;SDS011;9563;49.240;9.088;2023-04-01T06:59:48;2.43;;;0.53;;
18867;SDS011;9563;49.240;9.088;2023-04-01T07:02:19;1.37;;;0.40;;
18867;SDS011;9563;49.240;9.088;2023-04-01T07:04:52;2.37;;;0.60;;
18867;SDS011;9563;49.240;9.088;2023-04-01T07:07:24;3.50;;;0.63;;
18867;SDS011;9563;49.240;9.088;2023-04-01T07:09:57;3.77;;;0.50;;
18867;SDS011;9563;49.240;9.088;2023-04-01T07:12:31;2.27;;;0.50;;
18867;SDS011;9563;49.240;9.088;2023-04-01T07:15:12;3.97;;;0.47;;
18867;SDS011;9563;49.240;9.088;2023-04-01T07:17:43;2.17;;;0.60;;
18867;SDS011;9563;49.240;9.088;2023-04-01T07:20:13;1.30;;;0.50;;
18867;SDS011;9563;49.240;9.088;2023-04-01T07:22:46;1.27;;;0.40;;
18867;SDS011;9563;49.240;9.088;2023-04-01T07:25:16;2.37;;;0.50;;
18867;SDS011;9563;49.240;9.088;2023-04-01T07:27:45;1.20;;;0.30;;
18867;SDS011;9563;49.240;9.088;2023-04-01T07:30:15;0.50;;;0.33;;
18867;SDS011;9563;49.240;9.088;2023-04-01T07:32:44;2.17;;;0.40;;
18867;SDS011;9563;49.240;9.088;2023-04-01T07:35:19;1.20;;;0.30;;
18867;SDS011;9563;49.240;9.088;2023-04-01T07:37:58;1.83;;;0.60;;
18867;SDS011;9563;49.240;9.088;2023-04-01T07:40:39;1.00;;;0.20;;
18867;SDS011;9563;49.240;9.088;2023-04-01T07:43:18;0.50;;;0.30;;
18867;SDS011;9563;49.240;9.088;2023-04-01T07:46:00;2.87;;;0.73;;
18867;SDS011;9563;49.240;9.088;2023-04-01T07:48:33;2.70;;;1.13;;
18867;SDS011;9563;49.240;9.088;2023-04-01T07:51:09;1.60;;;0.40;;
18867;SDS011;9563;49.240;9.088;2023-04-01T07:53:42;1.80;;;0.67;;
18867;SDS011;9563;49.240;9.088;2023-04-01T07:56:15;0.67;;;0.33;;
18867;SDS011;9563;49.240;9.088;2023-04-01T07:58:52;1.07;;;0.47;;
18867;SDS011;9563;49.240;9.088;2023-04-01T08:01:28;3.23;;;0.43;;
18867;SDS011;9563;49.240;9.088;2023-04-01T08:04:07;2.93;;;0.43;;
18867;SDS011;9563;49.240;9.088;2023-04-01T08:06:51;1.33;;;0.50;;
18867;SDS011;9563;49.240;9.088;2023-04-01T08:09:26;1.43;;;0.40;;
18867;SDS011;9563;49.240;9.088;2023-04-01T08:12:01;4.20;;;0.50;;
18867;SDS011;9563;49.240;9.088;2023-04-01T08:14:37;0.87;;;0.43;;
18867;SDS011;9563;49.240;9.088;2023-04-01T08:17:14;0.60;;;0.50;;
18867;SDS011;9563;49.240;9.088;2023-04-01T08:19:56;1.63;;;0.37;;
18867;SDS011;9563;49.240;9.088;2023-04-01T08:22:35;2.07;;;0.60;;
18867;SDS011;9563;49.240;9.088;2023-04-01T08:25:06;0.70;;;0.40;;
18867;SDS011;9563;49.240;9.088;2023-04-01T08:27:43;3.53;;;0.60;;
18867;SDS011;9563;49.240;9.088;2023-04-01T08:30:16;1.77;;;0.30;;
18867;SDS011;9563;49.240;9.088;2023-04-01T08:32:47;0.50;;;0.40;;
18867;SDS011;9563;49.240;9.088;2023-04-01T08:35:18;1.20;;;0.30;;
18867;SDS011;9563;49.240;9.088;2023-04-01T08:37:53;2.57;;;0.30;;
18867;SDS011;9563;49.240;9.088;2023-04-01T08:43:16;0.40;;;0.30;;
18867;SDS011;9563;49.240;9.088;2023-04-01T08:46:06;0.30;;;0.30;;
18867;SDS011;9563;49.240;9.088;2023-04-01T08:48:51;2.13;;;0.40;;
18867;SDS011;9563;49.240;9.088;2023-04-01T08:51:38;0.87;;;0.57;;
18867;SDS011;9563;49.240;9.088;2023-04-01T08:54:31;1.30;;;0.43;;
18867;SDS011;9563;49.240;9.088;2023-04-01T08:57:26;1.30;;;0.30;;
18867;SDS011;9563;49.240;9.088;2023-04-01T09:00:06;2.90;;;0.50;;
18867;SDS011;9563;49.240;9.088;2023-04-01T09:05:41;2.87;;;0.40;;
18867;SDS011;9563;49.240;9.088;2023-04-01T09:08:27;3.37;;;0.60;;
18867;SDS011;9563;49.240;9.088;2023-04-01T09:11:04;2.87;;;0.40;;
18867;SDS011;9563;49.240;9.088;2023-04-01T09:13:41;1.93;;;0.27;;
18867;SDS011;9563;49.240;9.088;2023-04-01T09:16:39;0.73;;;0.50;;
18867;SDS011;9563;49.240;9.088;2023-04-01T09:19:30;1.40;;;0.30;;
18867;SDS011;9563;49.240;9.088;2023-04-01T09:25:15;1.40;;;0.40;;
18867;SDS011;9563;49.240;9.088;2023-04-01T09:27:56;0.40;;;0.20;;
18867;SDS011;9563;49.240;9.088;2023-04-01T09:30:34;3.90;;;0.77;;
18867;SDS011;9563;49.240;9.088;2023-04-01T09:33:43;0.83;;;0.43;;
18867;SDS011;9563;49.240;9.088;2023-04-01T09:36:43;3.53;;;0.50;;
18867;SDS011;9563;49.240;9.088;2023-04-01T09:39:22;1.33;;;0.50;;
18867;SDS011;9563;49.240;9.088;2023-04-01T09:42:06;0.90;;;0.40;;
18867;SDS011;9563;49.240;9.088;2023-04-01T09:44:43;0.40;;;0.40;;
18867;SDS011;9563;49.240;9.088;2023-04-01T09:47:20;0.33;;;0.20;;
18867;SDS011;9563;49.240;9.088;2023-04-01T09:49:57;1.43;;;0.40;;
18867;SDS011;9563;49.240;9.088;2023-04-01T09:52:43;1.77;;;0.30;;
18867;SDS011;9563;49.240;9.088;2023-04-01T09:55:21;2.03;;;0.30;;
18867;SDS011;9563;49.240;9.088;2023-04-01T09:58:27;2.87;;;0.40;;
18867;SDS011;9563;49.240;9.088;2023-04-01T10:01:30;1.03;;;0.40;;
18867;SDS011;9563;49.240;9.088;2023-04-01T10:07:09;0.83;;;0.20;;
18867;SDS011;9563;49.240;9.088;2023-04-01T10:10:19;0.93;;;0.43;;
18867;SDS011;9563;49.240;9.088;2023-04-01T10:16:23;0.63;;;0.30;;
18867;SDS011;9563;49.240;9.088;2023-04-01T10:22:21;1.30;;;0.63;;
18867;SDS011;9563;49.240;9.088;2023-04-01T10:28:16;1.00;;;0.90;;
18867;SDS011;9563;49.240;9.088;2023-04-01T10:34:26;1.60;;;0.30;;
18867;SDS011;9563;49.240;9.088;2023-04-01T10:37:15;2.57;;;0.30;;
18867;SDS011;9563;49.240;9.088;2023-04-01T10:40:12;0.60;;;0.47;;
18867;SDS011;9563;49.240;9.088;2023-04-01T10:49:13;1.17;;;0.40;;
18867;SDS011;9563;49.240;9.088;2023-04-01T10:55:14;1.07;;;0.20;;
18867;SDS011;9563;49.240;9.088;2023-04-01T10:58:02;0.40;;;0.27;;
18867;SDS011;9563;49.240;9.088;2023-04-01T11:01:03;0.83;;;0.30;;
18867;SDS011;9563;49.240;9.088;2023-04-01T11:03:54;0.63;;;0.27;;
18867;SDS011;9563;49.240;9.088;2023-04-01T11:15:56;0.50;;;0.20;;
18867;SDS011;9563;49.240;9.088;2023-04-01T11:21:59;2.10;;;0.50;;
18867;SDS011;9563;49.240;9.088;2023-04-01T11:24:51;0.73;;;0.40;;
18867;SDS011;9563;49.240;9.088;2023-04-01T11:27:46;2.57;;;0.60;;
18867;SDS011;9563;49.240;9.088;2023-04-01T11:30:44;0.40;;;0.33;;
18867;SDS011;9563;49.240;9.088;2023-04-01T11:33:25;2.30;;;0.37;;
18867;SDS011;9563;49.240;9.088;2023-04-01T11:36:02;4.33;;;0.50;;
18867;SDS011;9563;49.240;9.088;2023-04-01T11:38:48;0.70;;;0.40;;
18867;SDS011;9563;49.240;9.088;2023-04-01T11:41:30;0.93;;;0.30;;
18867;SDS011;9563;49.240;9.088;2023-04-01T11:44:08;1.57;;;0.50;;
18867;SDS011;9563;49.240;9.088;2023-04-01T11:46:46;1.33;;;0.40;;
18867;SDS011;9563;49.240;9.088;2023-04-01T11:49:25;1.07;;;0.20;;
18867;SDS011;9563;49.240;9.088;2023-04-01T11:54:58;6.50;;;0.60;;
18867;SDS011;9563;49.240;9.088;2023-04-01T11:57:51;2.50;;;0.50;;
18867;SDS011;9563;49.240;9.088;2023-04-01T12:03:35;2.53;;;0.50;;
18867;SDS011;9563;49.240;9.088;2023-04-01T12:06:14;2.73;;;0.40;;
18867;SDS011;9563;49.240;9.088;2023-04-01T12:08:46;1.13;;;0.50;;
18867;SDS011;9563;49.240;9.088;2023-04-01T12:11:21;1.50;;;0.37;;
18867;SDS011;9563;49.240;9.088;2023-04-01T12:13:55;0.70;;;0.30;;
18867;SDS011;9563;49.240;9.088;2023-04-01T12:16:45;2.33;;;0.60;;
18867;SDS011;9563;49.240;9.088;2023-04-01T12:19:23;1.10;;;0.40;;
18867;SDS011;9563;49.240;9.088;2023-04-01T12:22:03;0.43;;;0.33;;
18867;SDS011;9563;49.240;9.088;2023-04-01T12:25:05;4.00;;;0.30;;
18867;SDS011;9563;49.240;9.088;2023-04-01T12:27:45;3.10;;;0.67;;
18867;SDS011;9563;49.240;9.088;2023-04-01T12:30:39;3.23;;;0.87;;
18867;SDS011;9563;49.240;9.088;2023-04-01T12:36:19;0.63;;;0.43;;
18867;SDS011;9563;49.240;9.088;2023-04-01T12:39:03;2.03;;;0.43;;
18867;SDS011;9563;49.240;9.088;2023-04-01T12:41:48;0.67;;;0.40;;
18867;SDS011;9563;49.240;9.088;2023-04-01T12:44:36;2.73;;;0.57;;
18867;SDS011;9563;49.240;9.088;2023-04-01T12:50:16;0.30;;;0.30;;
18867;SDS011;9563;49.240;9.088;2023-04-01T12:52:57;0.50;;;0.20;;
18867;SDS011;9563;49.240;9.088;2023-04-01T12:55:40;0.40;;;0.30;;
18867;SDS011;9563;49.240;9.088;2023-04-01T13:01:08;0.90;;;0.43;;
18867;SDS011;9563;49.240;9.088;2023-04-01T13:03:50;1.13;;;0.50;;
18867;SDS011;9563;49.240;9.088;2023-04-01T13:06:31;1.27;;;0.50;;
18867;SDS011;9563;49.240;9.088;2023-04-01T13:09:13;1.60;;;0.40;;
18867;SDS011;9563;49.240;9.088;2023-04-01T13:12:01;0.87;;;0.30;;
18867;SDS011;9563;49.240;9.088;2023-04-01T13:14:50;0.73;;;0.40;;
18867;SDS011;9563;49.240;9.088;2023-04-01T13:17:32;0.67;;;0.60;;
18867;SDS011;9563;49.240;9.088;2023-04-01T13:20:07;3.47;;;1.40;;
18867;SDS011;9563;49.240;9.088;2023-04-01T13:22:46;1.17;;;0.67;;
18867;SDS011;9563;49.240;9.088;2023-04-01T13:25:24;0.73;;;0.30;;
18867;SDS011;9563;49.240;9.088;2023-04-01T13:28:01;0.70;;;0.50;;
18867;SDS011;9563;49.240;9.088;2023-04-01T13:30:37;1.03;;;0.70;;
18867;SDS011;9563;49.240;9.088;2023-04-01T13:33:12;0.43;;;0.43;;
18867;SDS011;9563;49.240;9.088;2023-04-01T13:35:48;1.80;;;0.53;;
18867;SDS011;9563;49.240;9.088;2023-04-01T13:38:32;0.70;;;0.50;;
18867;SDS011;9563;49.240;9.088;2023-04-01T13:41:13;2.53;;;0.50;;
18867;SDS011;9563;49.240;9.088;2023-04-01T13:43:49;0.33;;;0.30;;
18867;SDS011;9563;49.240;9.088;2023-04-01T13:46:33;0.53;;;0.40;;
18867;SDS011;9563;49.240;9.088;2023-04-01T13:49:31;0.77;;;0.40;;
18867;SDS011;9563;49.240;9.088;2023-04-01T13:55:26;1.90;;;0.50;;
18867;SDS011;9563;49.240;9.088;2023-04-01T13:58:16;0.93;;;0.40;;
18867;SDS011;9563;49.240;9.088;2023-04-01T14:01:03;1.50;;;0.60;;
18867;SDS011;9563;49.240;9.088;2023-04-01T14:03:42;1.33;;;0.50;;
18867;SDS011;9563;49.240;9.088;2023-04-01T14:06:23;1.40;;;0.60;;
18867;SDS011;9563;49.240;9.088;2023-04-01T14:11:56;1.10;;;0.40;;
18867;SDS011;9563;49.240;9.088;2023-04-01T14:14:35;1.00;;;0.30;;
18867;SDS011;9563;49.240;9.088;2023-04-01T14:17:17;0.57;;;0.40;;
18867;SDS011;9563;49.240;9.088;2023-04-01T14:19:58;0.77;;;0.40;;
18867;SDS011;9563;49.240;9.088;2023-04-01T14:22:42;1.27;;;0.70;;
18867;SDS011;9563;49.240;9.088;2023-04-01T14:25:33;0.50;;;0.40;;
18867;SDS011;9563;49.240;9.088;2023-04-01T14:28:12;1.40;;;0.50;;
18867;SDS011;9563;49.240;9.088;2023-04-01T14:30:53;0.87;;;0.30;;
18867;SDS011;9563;49.240;9.088;2023-04-01T14:33:46;5.07;;;0.53;;
18867;SDS011;9563;49.240;9.088;2023-04-01T14:36:29;0.57;;;0.47;;
18867;SDS011;9563;49.240;9.088;2023-04-01T14:39:11;3.50;;;0.60;;
18867;SDS011;9563;49.240;9.088;2023-04-01T14:41:51;0.87;;;0.30;;
18867;SDS011;9563;49.240;9.088;2023-04-01T14:50:11;0.40;;;0.40;;
18867;SDS011;9563;49.240;9.088;2023-04-01T14:52:45;0.30;;;0.30;;
18867;SDS011;9563;49.240;9.088;2023-04-01T14:55:25;0.40;;;0.40;;
18867;SDS011;9563;49.240;9.088;2023-04-01T14:58:09;2.63;;;0.50;;
18867;SDS011;9563;49.240;9.088;2023-04-01T15:00:48;0.70;;;0.50;;
18867;SDS011;9563;49.240;9.088;2023-04-01T15:03:22;1.83;;;0.50;;
18867;SDS011;9563;49.240;9.088;2023-04-01T15:05:56;0.40;;;0.30;;
18867;SDS011;9563;49.240;9.088;2023-04-01T15:08:35;0.87;;;0.40;;
18867;SDS011;9563;49.240;9.088;2023-04-01T15:11:13;3.47;;;0.43;;
18867;SDS011;9563;49.240;9.088;2023-04-01T15:14:05;0.87;;;0.47;;
18867;SDS011;9563;49.240;9.088;2023-04-01T15:17:05;2.73;;;0.50;;
18867;SDS011;9563;49.240;9.088;2023-04-01T15:19:51;0.50;;;0.30;;
18867;SDS011;9563;49.240;9.088;2023-04-01T15:22:50;0.50;;;0.33;;
18867;SDS011;9563;49.240;9.088;2023-04-01T15:25:31;1.43;;;0.30;;
18867;SDS011;9563;49.240;9.088;2023-04-01T15:28:19;1.07;;;0.40;;
18867;SDS011;9563;49.240;9.088;2023-04-01T15:30:57;1.43;;;0.60;;
18867;SDS011;9563;49.240;9.088;2023-04-01T15:33:48;1.00;;;0.53;;
18867;SDS011;9563;49.240;9.088;2023-04-01T15:36:28;0.50;;;0.40;;
18867;SDS011;9563;49.240;9.088;2023-04-01T15:39:04;2.00;;;0.63;;
18867;SDS011;9563;49.240;9.088;2023-04-01T15:47:41;0.50;;;0.50;;
18867;SDS011;9563;49.240;9.088;2023-04-01T15:50:20;0.87;;;0.50;;
18867;SDS011;9563;49.240;9.088;2023-04-01T15:53:10;3.70;;;0.47;;
18867;SDS011;9563;49.240;9.088;2023-04-01T15:55:52;0.57;;;0.40;;
18867;SDS011;9563;49.240;9.088;2023-04-01T15:58:32;2.13;;;0.57;;
18867;SDS011;9563;49.240;9.088;2023-04-01T16:01:13;2.00;;;0.70;;
18867;SDS011;9563;49.240;9.088;2023-04-01T16:03:54;2.33;;;0.30;;
18867;SDS011;9563;49.240;9.088;2023-04-01T16:06:31;1.57;;;0.67;;
18867;SDS011;9563;49.240;9.088;2023-04-01T16:12:25;1.70;;;0.60;;
18867;SDS011;9563;49.240;9.088;2023-04-01T16:15:06;0.90;;;0.60;;
18867;SDS011;9563;49.240;9.088;2023-04-01T16:20:51;1.57;;;0.63;;
18867;SDS011;9563;49.240;9.088;2023-04-01T16:23:22;1.07;;;0.53;;
18867;SDS011;9563;49.240;9.088;2023-04-01T16:25:58;2.57;;;0.70;;
18867;SDS011;9563;49.240;9.088;2023-04-01T16:28:42;4.40;;;0.70;;
18867;SDS011;9563;49.240;9.088;2023-04-01T16:31:25;2.50;;;0.60;;
18867;SDS011;9563;49.240;9.088;2023-04-01T16:33:59;1.27;;;0.53;;
18867;SDS011;9563;49.240;9.088;2023-04-01T16:36:34;1.57;;;0.50;;
18867;SDS011;9563;49.240;9.088;2023-04-01T16:39:10;1.67;;;0.80;;
18867;SDS011;9563;49.240;9.088;2023-04-01T16:41:47;3.03;;;0.70;;
18867;SDS011;9563;49.240;9.088;2023-04-01T16:44:19;0.70;;;0.53;;
18867;SDS011;9563;49.240;9.088;2023-04-01T16:46:49;2.30;;;0.70;;
18867;SDS011;9563;49.240;9.088;2023-04-01T16:49:29;4.57;;;0.90;;
18867;SDS011;9563;49.240;9.088;2023-04-01T16:55:04;1.20;;;0.90;;
18867;SDS011;9563;49.240;9.088;2023-04-01T16:57:43;1.57;;;0.67;;
18867;SDS011;9563;49.240;9.088;2023-04-01T17:00:16;3.03;;;0.80;;
18867;SDS011;9563;49.240;9.088;2023-04-01T17:02:52;1.70;;;0.90;;
18867;SDS011;9563;49.240;9.088;2023-04-01T17:05:35;5.20;;;0.80;;
18867;SDS011;9563;49.240;9.088;2023-04-01T17:08:09;3.37;;;0.57;;
18867;SDS011;9563;49.240;9.088;2023-04-01T17:10:50;1.93;;;1.10;;
18867;SDS011;9563;49.240;9.088;2023-04-01T17:13:31;1.57;;;0.70;;
18867;SDS011;9563;49.240;9.088;2023-04-01T17:18:56;2.10;;;0.67;;
18867;SDS011;9563;49.240;9.088;2023-04-01T17:21:38;1.83;;;0.90;;
18867;SDS011;9563;49.240;9.088;2023-04-01T17:24:21;2.33;;;0.70;;
18867;SDS011;9563;49.240;9.088;2023-04-01T17:26:57;2.47;;;0.70;;
18867;SDS011;9563;49.240;9.088;2023-04-01T17:29:46;9.93;;;1.07;;
18867;SDS011;9563;49.240;9.088;2023-04-01T17:32:31;3.63;;;0.67;;
18867;SDS011;9563;49.240;9.088;2023-04-01T17:35:11;2.73;;;0.93;;
18867;SDS011;9563;49.240;9.088;2023-04-01T17:37:45;4.43;;;0.80;;
18867;SDS011;9563;49.240;9.088;2023-04-01T17:40:33;2.23;;;0.67;;
18867;SDS011;9563;49.240;9.088;2023-04-01T17:43:12;2.67;;;0.90;;
18867;SDS011;9563;49.240;9.088;2023-04-01T17:45:48;3.17;;;1.17;;
18867;SDS011;9563;49.240;9.088;2023-04-01T17:48:22;2.40;;;0.70;;
18867;SDS011;9563;49.240;9.088;2023-04-01T17:51:02;1.03;;;0.83;;
18867;SDS011;9563;49.240;9.088;2023-04-01T17:53:41;2.73;;;0.90;;
18867;SDS011;9563;49.240;9.088;2023-04-01T17:56:34;2.93;;;1.00;;
18867;SDS011;9563;49.240;9.088;2023-04-01T17:59:12;3.97;;;0.87;;
18867;SDS011;9563;49.240;9.088;2023-04-01T18:01:51;4.20;;;0.87;;
18867;SDS011;9563;49.240;9.088;2023-04-01T18:07:36;2.97;;;0.80;;
18867;SDS011;9563;49.240;9.088;2023-04-01T18:10:21;3.47;;;0.97;;
18867;SDS011;9563;49.240;9.088;2023-04-01T18:13:06;1.90;;;0.80;;
18867;SDS011;9563;49.240;9.088;2023-04-01T18:15:53;2.40;;;1.00;;
18867;SDS011;9563;49.240;9.088;2023-04-01T18:18:39;3.07;;;1.63;;
18867;SDS011;9563;49.240;9.088;2023-04-01T18:21:19;6.00;;;1.00;;
18867;SDS011;9563;49.240;9.088;2023-04-01T18:23:54;1.77;;;0.80;;
18867;SDS011;9563;49.240;9.088;2023-04-01T18:26:24;5.63;;;1.20;;
18867;SDS011;9563;49.240;9.088;2023-04-01T18:28:57;3.13;;;1.13;;
18867;SDS011;9563;49.240;9.088;2023-04-01T18:31:32;1.33;;;0.87;;
18867;SDS011;9563;49.240;9.088;2023-04-01T18:34:02;3.87;;;1.30;;
18867;SDS011;9563;49.240;9.088;2023-04-01T18:36:39;1.83;;;0.87;;
18867;SDS011;9563;49.240;9.088;2023-04-01T18:39:11;2.77;;;1.27;;
18867;SDS011;9563;49.240;9.088;2023-04-01T18:41:47;3.47;;;1.20;;
18867;SDS011;9563;49.240;9.088;2023-04-01T18:44:25;2.13;;;0.90;;
18867;SDS011;9563;49.240;9.088;2023-04-01T18:47:00;3.07;;;0.80;;
18867;SDS011;9563;49.240;9.088;2023-04-01T18:49:39;1.37;;;0.80;;
18867;SDS011;9563;49.240;9.088;2023-04-01T18:52:13;3.33;;;1.30;;
18867;SDS011;9563;49.240;9.088;2023-04-01T18:54:47;2.77;;;0.87;;
18867;SDS011;9563;49.240;9.088;2023-04-01T18:57:39;2.47;;;0.80;;
18867;SDS011;9563;49.240;9.088;2023-04-01T19:00:18;3.97;;;0.90;;
18867;SDS011;9563;49.240;9.088;2023-04-01T19:02:48;3.87;;;0.93;;
18867;SDS011;9563;49.240;9.088;2023-04-01T19:05:22;4.10;;;1.10;;
18867;SDS011;9563;49.240;9.088;2023-04-01T19:07:53;3.83;;;1.27;;
18867;SDS011;9563;49.240;9.088;2023-04-01T19:10:23;3.83;;;0.90;;
18867;SDS011;9563;49.240;9.088;2023-04-01T19:13:02;2.40;;;1.20;;
18867;SDS011;9563;49.240;9.088;2023-04-01T19:15:42;2.73;;;0.80;;
18867;SDS011;9563;49.240;9.088;2023-04-01T19:18:32;1.70;;;0.70;;
18867;SDS011;9563;49.240;9.088;2023-04-01T19:21:12;3.73;;;0.87;;
18867;SDS011;9563;49.240;9.088;2023-04-01T19:23:54;3.07;;;0.97;;
18867;SDS011;9563;49.240;9.088;2023-04-01T19:26:33;2.73;;;1.13;;
18867;SDS011;9563;49.240;9.088;2023-04-01T19:29:06;2.57;;;0.80;;
18867;SDS011;9563;49.240;9.088;2023-04-01T19:31:50;1.50;;;1.00;;
18867;SDS011;9563;49.240;9.088;2023-04-01T19:34:26;3.00;;;1.03;;
18867;SDS011;9563;49.240;9.088;2023-04-01T19:37:01;3.07;;;1.13;;
18867;SDS011;9563;49.240;9.088;2023-04-01T19:39:39;1.00;;;0.90;;
18867;SDS011;9563;49.240;9.088;2023-04-01T19:42:19;1.17;;;0.70;;
18867;SDS011;9563;49.240;9.088;2023-04-01T19:44:57;4.63;;;1.30;;
18867;SDS011;9563;49.240;9.088;2023-04-01T19:47:39;2.63;;;1.17;;
18867;SDS011;9563;49.240;9.088;2023-04-01T19:50:20;3.63;;;0.90;;
18867;SDS011;9563;49.240;9.088;2023-04-01T19:52:59;3.87;;;1.30;;
18867;SDS011;9563;49.240;9.088;2023-04-01T19:55:34;1.77;;;1.17;;
18867;SDS011;9563;49.240;9.088;2023-04-01T19:58:11;5.70;;;1.00;;
18867;SDS011;9563;49.240;9.088;2023-04-01T20:00:47;4.17;;;0.93;;
18867;SDS011;9563;49.240;9.088;2023-04-01T20:03:28;6.13;;;1.10;;
18867;SDS011;9563;49.240;9.088;2023-04-01T20:06:04;2.40;;;1.07;;
18867;SDS011;9563;49.240;9.088;2023-04-01T20:08:49;3.07;;;0.97;;
18867;SDS011;9563;49.240;9.088;2023-04-01T20:11:28;3.00;;;0.90;;
18867;SDS011;9563;49.240;9.088;2023-04-01T20:14:08;3.40;;;0.90;;
18867;SDS011;9563;49.240;9.088;2023-04-01T20:16:49;2.33;;;0.70;;
18867;SDS011;9563;49.240;9.088;2023-04-01T20:19:26;1.13;;;0.80;;
18867;SDS011;9563;49.240;9.088;2023-04-01T20:21:56;3.53;;;0.70;;
18867;SDS011;9563;49.240;9.088;2023-04-01T20:24:29;2.07;;;0.60;;
18867;SDS011;9563;49.240;9.088;2023-04-01T20:27:02;2.63;;;0.70;;
18867;SDS011;9563;49.240;9.088;2023-04-01T20:29:39;0.90;;;0.60;;
18867;SDS011;9563;49.240;9.088;2023-04-01T20:32:25;3.37;;;0.90;;
18867;SDS011;9563;49.240;9.088;2023-04-01T20:35:13;2.67;;;0.60;;
18867;SDS011;9563;49.240;9.088;2023-04-01T20:37:49;2.77;;;0.60;;
18867;SDS011;9563;49.240;9.088;2023-04-01T20:40:28;0.97;;;0.57;;
18867;SDS011;9563;49.240;9.088;2023-04-01T20:43:30;2.00;;;0.90;;
18867;SDS011;9563;49.240;9.088;2023-04-01T20:46:26;3.27;;;0.80;;
18867;SDS011;9563;49.240;9.088;2023-04-01T20:49:01;4.20;;;1.10;;
18867;SDS011;9563;49.240;9.088;2023-04-01T20:51:45;1.97;;;0.97;;
18867;SDS011;9563;49.240;9.088;2023-04-01T20:54:20;2.53;;;0.70;;
18867;SDS011;9563;49.240;9.088;2023-04-01T20:57:09;4.40;;;1.10;;
18867;SDS011;9563;49.240;9.088;2023-04-01T20:59:50;2.13;;;0.80;;
18867;SDS011;9563;49.240;9.088;2023-04-01T21:02:41;2.30;;;1.13;;
18867;SDS011;9563;49.240;9.088;2023-04-01T21:05:23;1.60;;;0.80;;
18867;SDS011;9563;49.240;9.088;2023-04-01T21:08:10;3.87;;;1.53;;
18867;SDS011;9563;49.240;9.088;2023-04-01T21:10:46;1.67;;;0.90;;
18867;SDS011;9563;49.240;9.088;2023-04-01T21:13:25;4.33;;;1.03;;
18867;SDS011;9563;49.240;9.088;2023-04-01T21:16:07;2.67;;;0.90;;
18867;SDS011;9563;49.240;9.088;2023-04-01T21:18:47;2.03;;;1.00;;
18867;SDS011;9563;49.240;9.088;2023-04-01T21:21:40;2.23;;;1.00;;
18867;SDS011;9563;49.240;9.088;2023-04-01T21:27:28;1.70;;;0.80;;
